Time;durP1;ratioP1;P1;durP2;ratioP2;P2;SDS_P1;SDS_P2;PMS_P1;PMS_P2;Temp;Humidity;BMP_temperature;BMP_pressure;BME280_temperature;BME280_humidity;BME280_pressure;Samples;Min_cycle;Max_cycle;Signal;HPM_P1;HPM_P2
2023/09/30 00:00:05;;;;;;;;;;;21.10;71.50;;;;;;5096274;28;19915;-54
2023/09/30 00:02:32;;;;;;;;;;;21.10;71.50;;;;;;5113760;28;21376;-55
2023/09/30 00:04:58;;;;;;;;;;;21.10;71.50;;;;;;5113528;28;20003;-55
2023/09/30 00:07:23;;;;;;;;;;;21.10;71.40;;;;;;5114120;28;19931;-55
2023/09/30 00:09:49;;;;;;;;;;;21.10;71.40;;;;;;5114080;28;19915;-54
2023/09/30 00:12:14;;;;;;;;;;;21.10;71.40;;;;;;5114148;28;19930;-54
2023/09/30 00:14:40;;;;;;;;;;;21.10;71.40;;;;;;5113947;28;20296;-55
2023/09/30 00:17:05;;;;;;;;;;;21.10;71.20;;;;;;5113982;28;19915;-56
2023/09/30 00:19:33;;;;;;;;;;;21.10;71.10;;;;;;5113869;28;20347;-56
2023/09/30 00:21:59;;;;;;;;;;;21.10;71.00;;;;;;5113865;28;19922;-56
2023/09/30 00:24:25;;;;;;;;;;;21.10;71.10;;;;;;5095681;28;20320;-56
2023/09/30 00:26:51;;;;;;;;;;;21.00;71.10;;;;;;5114095;28;19914;-56
2023/09/30 00:29:17;;;;;;;;;;;21.10;71.00;;;;;;5113761;28;19953;-55
2023/09/30 00:31:44;;;;;;;;;;;21.00;70.90;;;;;;5113927;28;19953;-56
2023/09/30 00:34:09;;;;;;;;;;;21.00;71.00;;;;;;5113808;28;19908;-56
2023/09/30 00:36:35;;;;;;;;;;;21.00;71.10;;;;;;5113628;28;19943;-56
2023/09/30 00:39:00;;;;;;;;;;;21.00;70.80;;;;;;5095395;28;19965;-55
2023/09/30 00:41:26;;;;;;;;;;;21.00;70.80;;;;;;5113585;28;19914;-56
2023/09/30 00:43:51;;;;;;;;;;;21.00;70.90;;;;;;5113563;28;19947;-56
2023/09/30 00:46:25;;;;;;;;;;;21.00;70.90;;;;;;5113560;28;19998;-55
2023/09/30 00:48:50;;;;;;;;;;;21.00;70.90;;;;;;5095316;28;19998;-55
2023/09/30 00:51:16;;;;;;;;;;;21.00;70.70;;;;;;5113241;28;19955;-56
2023/09/30 00:53:41;;;;;;;;;;;21.00;70.80;;;;;;5113381;28;19908;-54
2023/09/30 00:56:07;;;;;;;;;;;20.90;70.40;;;;;;5113488;28;20355;-54
2023/09/30 00:58:32;;;;;;;;;;;20.90;70.50;;;;;;5113338;28;20360;-56
2023/09/30 01:00:58;;;;;;;;;;;20.90;70.50;;;;;;5113485;28;20261;-56
2023/09/30 01:03:23;;;;;;;;;;;20.90;70.40;;;;;;5113645;28;19908;-55
2023/09/30 01:05:49;;;;;;;;;;;20.90;70.50;;;;;;5113360;28;19976;-56
2023/09/30 01:08:16;;;;;;;;;;;20.90;70.30;;;;;;5113404;28;20322;-56
2023/09/30 01:10:41;;;;;;;;;;;20.90;70.30;;;;;;5095099;28;20401;-56
2023/09/30 01:13:07;;;;;;;;;;;20.90;70.30;;;;;;5113305;28;19908;-55
2023/09/30 01:15:32;;;;;;;;;;;20.90;70.20;;;;;;5113737;28;19968;-55
2023/09/30 01:17:58;;;;;;;;;;;21.00;70.30;;;;;;5117417;28;19912;-55
2023/09/30 01:20:23;;;;;;;;;;;20.90;70.30;;;;;;5117483;28;20261;-56
2023/09/30 01:22:49;;;;;;;;;;;20.90;70.30;;;;;;5117467;28;19969;-56
2023/09/30 01:25:14;;;;;;;;;;;20.90;70.20;;;;;;5099092;28;19907;-55
2023/09/30 01:27:40;;;;;;;;;;;20.90;70.20;;;;;;5117344;28;19960;-56
2023/09/30 01:30:06;;;;;;;;;;;20.90;70.20;;;;;;5117180;28;19957;-55
2023/09/30 01:32:31;;;;;;;;;;;20.90;70.20;;;;;;5098955;28;20270;-56
2023/09/30 01:34:56;;;;;;;;;;;20.90;69.80;;;;;;5117228;28;19914;-55
2023/09/30 01:37:22;;;;;;;;;;;20.80;69.80;;;;;;5117214;28;19956;-56
2023/09/30 01:39:50;;;;;;;;;;;20.80;69.90;;;;;;5098822;28;19912;-55
2023/09/30 01:42:15;;;;;;;;;;;20.80;69.70;;;;;;5117303;28;19994;-56
2023/09/30 01:44:41;;;;;;;;;;;20.80;69.90;;;;;;5117181;28;19957;-56
2023/09/30 01:47:06;;;;;;;;;;;20.80;70.00;;;;;;5117104;28;20287;-55
2023/09/30 01:49:32;;;;;;;;;;;20.80;69.90;;;;;;5116922;28;19908;-55
2023/09/30 01:51:57;;;;;;;;;;;20.80;69.80;;;;;;5116773;28;19919;-55
2023/09/30 01:54:23;;;;;;;;;;;20.80;69.70;;;;;;5116818;28;19915;-56
2023/09/30 01:56:49;;;;;;;;;;;20.80;69.70;;;;;;5116866;28;19950;-55
2023/09/30 01:59:15;;;;;;;;;;;20.80;69.70;;;;;;5116719;28;19912;-55
2023/09/30 02:01:40;;;;;;;;;;;20.80;69.70;;;;;;5117012;28;19952;-56
2023/09/30 02:04:06;;;;;;;;;;;20.70;69.70;;;;;;5116596;28;19908;-55
2023/09/30 02:06:32;;;;;;;;;;;20.80;69.80;;;;;;5116810;28;19915;-56
2023/09/30 02:08:57;;;;;;;;;;;20.70;69.60;;;;;;5116601;28;19914;-56
2023/09/30 02:11:22;;;;;;;;;;;20.70;69.50;;;;;;5116572;28;19950;-56
2023/09/30 02:13:48;;;;;;;;;;;20.70;69.60;;;;;;5116374;28;19908;-55
2023/09/30 02:16:13;;;;;;;;;;;20.70;69.40;;;;;;5116506;28;20429;-55
2023/09/30 02:18:41;;;;;;;;;;;20.70;69.60;;;;;;5098144;28;19921;-55
2023/09/30 02:21:07;;;;;;;;;;;20.70;69.50;;;;;;5116422;28;20299;-55
2023/09/30 02:23:33;;;;;;;;;;;20.70;69.50;;;;;;5116363;28;19908;-56
2023/09/30 02:25:58;;;;;;;;;;;20.60;69.40;;;;;;5116334;28;20326;-55
2023/09/30 02:28:24;;;;;;;;;;;20.70;69.40;;;;;;5115337;28;19976;-56
2023/09/30 02:30:49;;;;;;;;;;;20.70;69.40;;;;;;5116087;28;19911;-55
2023/09/30 02:33:15;;;;;;;;;;;20.60;69.20;;;;;;5116139;28;19912;-55
2023/09/30 02:35:44;;;;;;;;;;;20.60;69.30;;;;;;5115946;28;19915;-55
2023/09/30 02:38:11;;;;;;;;;;;20.60;69.30;;;;;;5115959;28;20014;-56
2023/09/30 02:40:36;;;;;;;;;;;20.60;69.30;;;;;;5115999;28;19955;-56
2023/09/30 02:43:01;;;;;;;;;;;20.60;69.30;;;;;;5115913;28;20276;-56
2023/09/30 02:45:27;;;;;;;;;;;20.50;69.20;;;;;;5115977;28;19908;-54
2023/09/30 02:47:52;;;;;;;;;;;20.50;69.30;;;;;;5115942;28;19908;-55
2023/09/30 02:50:18;;;;;;;;;;;20.50;69.30;;;;;;5115802;28;19908;-55
2023/09/30 02:52:43;;;;;;;;;;;20.50;69.20;;;;;;5115587;28;19923;-55
2023/09/30 02:55:09;;;;;;;;;;;20.50;69.30;;;;;;5115729;28;19912;-55
2023/09/30 02:57:38;;;;;;;;;;;20.50;69.30;;;;;;5097461;28;19994;-54
2023/09/30 03:00:13;;;;;;;;;;;20.40;69.30;;;;;;5115612;28;19907;-56
2023/09/30 03:02:39;;;;;;;;;;;20.40;69.30;;;;;;5122370;28;19966;-54
2023/09/30 03:05:05;;;;;;;;;;;20.40;69.30;;;;;;5115468;28;20356;-54
2023/09/30 03:07:33;;;;;;;;;;;20.50;69.40;;;;;;5115421;28;19911;-53
2023/09/30 03:10:00;;;;;;;;;;;20.50;69.30;;;;;;5115416;28;19907;-53
2023/09/30 03:12:25;;;;;;;;;;;20.50;69.20;;;;;;5096921;28;19908;-54
2023/09/30 03:14:51;;;;;;;;;;;20.50;69.20;;;;;;5115222;28;19907;-54
2023/09/30 03:17:17;;;;;;;;;;;20.50;69.20;;;;;;5115213;28;19914;-54
2023/09/30 03:19:43;;;;;;;;;;;20.50;69.20;;;;;;5115167;28;19953;-54
2023/09/30 03:22:11;;;;;;;;;;;20.50;69.20;;;;;;5115232;28;19915;-54
2023/09/30 03:24:37;;;;;;;;;;;20.50;69.20;;;;;;5114987;28;20009;-53
2023/09/30 03:27:03;;;;;;;;;;;20.50;69.20;;;;;;5096772;28;19908;-54
2023/09/30 03:29:28;;;;;;;;;;;20.50;69.20;;;;;;5114964;28;19908;-53
2023/09/30 03:31:54;;;;;;;;;;;20.50;69.20;;;;;;5115087;28;20364;-53
2023/09/30 03:34:20;;;;;;;;;;;20.40;69.10;;;;;;5114816;28;19908;-53
2023/09/30 03:36:45;;;;;;;;;;;20.50;69.20;;;;;;5114860;28;19908;-54
2023/09/30 03:39:14;;;;;;;;;;;20.40;69.20;;;;;;5096458;28;20395;-54
2023/09/30 03:41:40;;;;;;;;;;;20.40;69.20;;;;;;5096576;28;19911;-54
2023/09/30 03:44:06;;;;;;;;;;;20.40;69.20;;;;;;5114746;28;20056;-53
2023/09/30 03:46:31;;;;;;;;;;;20.40;69.30;;;;;;5114632;28;20041;-54
2023/09/30 03:48:57;;;;;;;;;;;20.40;69.30;;;;;;5114462;28;19915;-53
2023/09/30 03:51:25;;;;;;;;;;;20.40;69.20;;;;;;5114419;28;19926;-54
2023/09/30 03:53:50;;;;;;;;;;;20.40;69.30;;;;;;5114432;28;20402;-54
2023/09/30 03:56:16;;;;;;;;;;;20.30;69.30;;;;;;5096144;28;19908;-54
2023/09/30 03:58:41;;;;;;;;;;;20.40;69.40;;;;;;5114249;28;20002;-54
2023/09/30 04:01:07;;;;;;;;;;;20.40;69.30;;;;;;5114339;28;19940;-54
2023/09/30 04:03:33;;;;;;;;;;;20.30;69.30;;;;;;5114251;28;19956;-54
2023/09/30 04:05:59;;;;;;;;;;;20.40;69.40;;;;;;5114274;28;20010;-53
2023/09/30 04:08:24;;;;;;;;;;;20.30;69.30;;;;;;5096125;28;19957;-54
2023/09/30 04:10:49;;;;;;;;;;;20.30;69.20;;;;;;5114078;28;19916;-54
2023/09/30 04:13:15;;;;;;;;;;;20.30;69.30;;;;;;5113954;28;19956;-54
2023/09/30 04:15:41;;;;;;;;;;;20.30;69.30;;;;;;5114027;28;19941;-54
2023/09/30 04:18:06;;;;;;;;;;;20.30;69.30;;;;;;5095573;28;19915;-54
2023/09/30 04:20:31;;;;;;;;;;;20.30;69.30;;;;;;5113942;28;19916;-54
2023/09/30 04:22:57;;;;;;;;;;;20.30;69.20;;;;;;5114253;28;19931;-52
2023/09/30 04:25:24;;;;;;;;;;;20.30;69.20;;;;;;5113868;28;20266;-54
2023/09/30 04:27:50;;;;;;;;;;;20.30;69.30;;;;;;5113919;28;19908;-54
2023/09/30 04:30:15;;;;;;;;;;;20.30;69.30;;;;;;5113786;28;20420;-53
2023/09/30 04:32:41;;;;;;;;;;;20.30;69.40;;;;;;5113792;28;19908;-54
2023/09/30 04:35:07;;;;;;;;;;;20.20;69.20;;;;;;5113785;28;19933;-54
2023/09/30 04:37:33;;;;;;;;;;;20.20;69.30;;;;;;5113639;28;19998;-54
2023/09/30 04:39:59;;;;;;;;;;;20.20;69.30;;;;;;5113772;28;19954;-53
2023/09/30 04:42:27;;;;;;;;;;;20.20;69.20;;;;;;5113629;28;19908;-54
2023/09/30 04:44:55;;;;;;;;;;;20.20;69.20;;;;;;5095862;28;19908;-53
2023/09/30 04:47:21;;;;;;;;;;;20.20;69.20;;;;;;5113554;28;20371;-54
2023/09/30 04:49:47;;;;;;;;;;;20.20;69.20;;;;;;5113545;28;19972;-54
2023/09/30 04:52:12;;;;;;;;;;;20.20;69.20;;;;;;5112889;28;20014;-54
2023/09/30 04:54:37;;;;;;;;;;;20.20;69.20;;;;;;5113433;28;19908;-54
2023/09/30 04:57:03;;;;;;;;;;;20.20;69.20;;;;;;5113360;28;19908;-54
2023/09/30 04:59:29;;;;;;;;;;;20.20;69.20;;;;;;5113410;28;19991;-53
2023/09/30 05:01:56;;;;;;;;;;;20.20;70.00;;;;;;5113678;28;19908;-53
2023/09/30 05:04:23;;;;;;;;;;;20.20;69.20;;;;;;5113385;28;19907;-54
2023/09/30 05:06:49;;;;;;;;;;;20.20;69.20;;;;;;5095505;28;19908;-55
2023/09/30 05:09:15;;;;;;;;;;;20.20;69.20;;;;;;5113464;28;20433;-55
2023/09/30 05:11:40;;;;;;;;;;;20.20;69.20;;;;;;5113296;28;19919;-55
2023/09/30 05:14:05;;;;;;;;;;;20.20;69.20;;;;;;5113214;28;19912;-55
2023/09/30 05:16:31;;;;;;;;;;;20.10;69.20;;;;;;5113408;28;20406;-53
2023/09/30 05:18:57;;;;;;;;;;;20.20;69.20;;;;;;5113233;28;20288;-55
2023/09/30 05:21:22;;;;;;;;;;;20.20;69.20;;;;;;5113292;28;19950;-54
2023/09/30 05:23:48;;;;;;;;;;;20.20;70.00;;;;;;5113119;28;19959;-54
2023/09/30 05:26:13;;;;;;;;;;;20.10;69.10;;;;;;5095101;28;19907;-54
2023/09/30 05:28:39;;;;;;;;;;;20.10;69.20;;;;;;5095091;28;20002;-54
2023/09/30 05:31:05;;;;;;;;;;;20.10;69.30;;;;;;5113268;28;20235;-54
2023/09/30 05:33:30;;;;;;;;;;;20.10;69.20;;;;;;5095047;28;19934;-54
2023/09/30 05:35:56;;;;;;;;;;;20.10;69.30;;;;;;5113108;28;19915;-55
2023/09/30 05:38:23;;;;;;;;;;;20.10;69.20;;;;;;5113128;28;19981;-55
2023/09/30 05:40:49;;;;;;;;;;;20.10;69.20;;;;;;5113048;28;19908;-55
2023/09/30 05:43:14;;;;;;;;;;;20.10;69.30;;;;;;5113029;28;19931;-54
2023/09/30 05:45:49;;;;;;;;;;;20.10;69.20;;;;;;5113030;28;19915;-54
2023/09/30 05:48:15;;;;;;;;;;;20.10;69.20;;;;;;5113083;28;20287;-54
2023/09/30 05:50:42;;;;;;;;;;;20.10;69.30;;;;;;5113006;28;19912;-54
2023/09/30 05:53:09;;;;;;;;;;;20.10;69.30;;;;;;5113133;28;19907;-53
2023/09/30 05:55:35;;;;;;;;;;;20.10;69.40;;;;;;5112809;28;19914;-54
2023/09/30 05:58:01;;;;;;;;;;;20.00;69.40;;;;;;5112822;28;19916;-54
2023/09/30 06:00:30;;;;;;;;;;;20.00;69.40;;;;;;5112966;28;19907;-54
2023/09/30 06:02:59;;;;;;;;;;;20.10;69.40;;;;;;5096201;28;19999;-54
2023/09/30 06:05:29;;;;;;;;;;;20.00;69.40;;;;;;5116926;28;19912;-55
2023/09/30 06:07:55;;;;;;;;;;;20.10;69.40;;;;;;5123393;28;19911;-53
2023/09/30 06:10:20;;;;;;;;;;;20.00;69.30;;;;;;5116753;28;20283;-53
2023/09/30 06:12:46;;;;;;;;;;;20.00;69.30;;;;;;5116499;28;19908;-54
2023/09/30 06:15:13;;;;;;;;;;;20.00;69.30;;;;;;5116504;28;19998;-54
2023/09/30 06:17:39;;;;;;;;;;;20.00;69.40;;;;;;5116300;28;19920;-55
2023/09/30 06:20:09;;;;;;;;;;;20.00;69.50;;;;;;5098154;28;20409;-54
2023/09/30 06:22:34;;;;;;;;;;;20.00;69.50;;;;;;5116333;28;19908;-54
2023/09/30 06:24:59;;;;;;;;;;;20.00;69.40;;;;;;5116193;28;19907;-54
2023/09/30 06:27:25;;;;;;;;;;;20.00;69.40;;;;;;5116163;28;19908;-55
2023/09/30 06:29:51;;;;;;;;;;;20.00;69.40;;;;;;5116131;28;20321;-55
2023/09/30 06:32:16;;;;;;;;;;;20.00;69.50;;;;;;5116193;28;19908;-55
2023/09/30 06:34:42;;;;;;;;;;;20.00;69.60;;;;;;5097878;28;19921;-54
2023/09/30 06:37:08;;;;;;;;;;;20.00;69.60;;;;;;5116045;28;19915;-55
2023/09/30 06:39:33;;;;;;;;;;;20.00;69.50;;;;;;5116125;28;19986;-54
2023/09/30 06:41:59;;;;;;;;;;;20.00;69.50;;;;;;5097892;28;20002;-55
2023/09/30 06:44:25;;;;;;;;;;;20.00;69.50;;;;;;5097546;28;19914;-54
2023/09/30 06:46:50;;;;;;;;;;;20.00;69.50;;;;;;5115784;28;19930;-55
2023/09/30 06:49:16;;;;;;;;;;;20.00;69.50;;;;;;5097607;28;19930;-55
2023/09/30 06:51:41;;;;;;;;;;;20.00;69.60;;;;;;5115547;28;19926;-53
2023/09/30 06:54:07;;;;;;;;;;;20.00;69.70;;;;;;5115677;28;20010;-54
2023/09/30 06:56:33;;;;;;;;;;;20.00;69.60;;;;;;5115583;28;20364;-54
2023/09/30 06:58:59;;;;;;;;;;;20.00;69.50;;;;;;5115515;28;19911;-54
2023/09/30 07:01:25;;;;;;;;;;;20.00;69.60;;;;;;5115570;28;19907;-55
2023/09/30 07:03:51;;;;;;;;;;;20.00;69.60;;;;;;5097347;28;19957;-53
2023/09/30 07:06:25;;;;;;;;;;;20.00;69.70;;;;;;5115620;28;19912;-54
2023/09/30 07:08:51;;;;;;;;;;;20.00;69.60;;;;;;5115365;28;19912;-54
2023/09/30 07:11:16;;;;;;;;;;;20.00;69.60;;;;;;5115397;28;19915;-54
2023/09/30 07:13:41;;;;;;;;;;;20.00;69.60;;;;;;5114694;28;20275;-55
2023/09/30 07:16:07;;;;;;;;;;;20.00;69.70;;;;;;5115434;28;19908;-54
2023/09/30 07:18:32;;;;;;;;;;;20.00;69.70;;;;;;5115081;28;20010;-55
2023/09/30 07:20:58;;;;;;;;;;;20.00;69.60;;;;;;5115299;28;19908;-53
2023/09/30 07:23:23;;;;;;;;;;;20.00;69.70;;;;;;5115100;28;19908;-55
2023/09/30 07:25:49;;;;;;;;;;;20.00;69.60;;;;;;5114883;28;19914;-55
2023/09/30 07:28:14;;;;;;;;;;;20.00;69.70;;;;;;5114970;28;20244;-55
2023/09/30 07:30:40;;;;;;;;;;;20.00;69.80;;;;;;5114979;28;19957;-53
2023/09/30 07:33:06;;;;;;;;;;;20.00;69.80;;;;;;5115082;28;19947;-55
2023/09/30 07:35:32;;;;;;;;;;;20.00;69.80;;;;;;5114890;28;19908;-55
2023/09/30 07:37:57;;;;;;;;;;;20.00;69.80;;;;;;5114792;28;19934;-55
2023/09/30 07:40:23;;;;;;;;;;;20.00;69.80;;;;;;5114784;28;19946;-54
2023/09/30 07:42:49;;;;;;;;;;;20.00;69.80;;;;;;5114745;28;20399;-54
2023/09/30 07:45:16;;;;;;;;;;;20.00;69.80;;;;;;5114777;28;19912;-54
2023/09/30 07:47:46;;;;;;;;;;;20.00;69.80;;;;;;5114604;28;19930;-54
2023/09/30 07:50:12;;;;;;;;;;;20.00;69.80;;;;;;5114676;28;19908;-53
2023/09/30 07:52:39;;;;;;;;;;;20.00;69.90;;;;;;5114423;28;20307;-54
2023/09/30 07:55:05;;;;;;;;;;;20.00;69.80;;;;;;5114438;28;20344;-55
2023/09/30 07:57:30;;;;;;;;;;;20.00;69.90;;;;;;5079161;28;20002;-55
2023/09/30 07:59:56;;;;;;;;;;;20.00;69.90;;;;;;5114374;28;19960;-53
2023/09/30 08:02:22;;;;;;;;;;;19.90;70.60;;;;;;5114312;28;19907;-55
2023/09/30 08:04:48;;;;;;;;;;;20.00;70.00;;;;;;5114368;28;19908;-54
2023/09/30 08:07:13;;;;;;;;;;;20.00;70.00;;;;;;5114195;28;19914;-54
2023/09/30 08:09:39;;;;;;;;;;;19.90;70.00;;;;;;5114120;28;19954;-54
2023/09/30 08:12:04;;;;;;;;;;;20.00;70.00;;;;;;5114243;28;19912;-55
2023/09/30 08:14:30;;;;;;;;;;;20.00;70.00;;;;;;5095969;28;19914;-55
2023/09/30 08:16:56;;;;;;;;;;;20.00;70.10;;;;;;5114071;28;19908;-53
2023/09/30 08:19:21;;;;;;;;;;;20.00;70.00;;;;;;5114045;28;19916;-55
2023/09/30 08:21:47;;;;;;;;;;;19.90;70.00;;;;;;5114119;28;19911;-55
2023/09/30 08:24:12;;;;;;;;;;;20.00;70.10;;;;;;5095938;28;20003;-54
2023/09/30 08:26:38;;;;;;;;;;;20.00;70.10;;;;;;5113241;28;19912;-53
2023/09/30 08:29:03;;;;;;;;;;;20.00;70.10;;;;;;5114244;28;20269;-53
2023/09/30 08:31:29;;;;;;;;;;;20.00;70.10;;;;;;5113954;28;19926;-54
2023/09/30 08:33:55;;;;;;;;;;;20.00;70.20;;;;;;5113832;28;20006;-54
2023/09/30 08:36:20;;;;;;;;;;;20.00;70.30;;;;;;5113783;28;20228;-54
2023/09/30 08:38:46;;;;;;;;;;;20.00;70.40;;;;;;5095354;28;20265;-54
2023/09/30 08:41:11;;;;;;;;;;;20.00;70.30;;;;;;5095590;28;19943;-54
2023/09/30 08:43:38;;;;;;;;;;;20.00;70.30;;;;;;5113952;28;19908;-55
2023/09/30 08:46:04;;;;;;;;;;;20.00;70.40;;;;;;5113835;28;20002;-55
2023/09/30 08:48:32;;;;;;;;;;;20.00;70.30;;;;;;5113659;28;19943;-55
2023/09/30 08:50:58;;;;;;;;;;;20.00;70.40;;;;;;5113371;28;19934;-54
2023/09/30 08:53:26;;;;;;;;;;;20.00;70.40;;;;;;5113657;28;20013;-54
2023/09/30 08:55:52;;;;;;;;;;;20.00;70.50;;;;;;5095770;28;20375;-54
2023/09/30 08:58:18;;;;;;;;;;;20.00;70.50;;;;;;5113447;28;19918;-54
2023/09/30 09:00:44;;;;;;;;;;;20.00;70.50;;;;;;5095326;28;20390;-54
2023/09/30 09:03:10;;;;;;;;;;;20.00;70.60;;;;;;5113501;28;19908;-54
2023/09/30 09:05:35;;;;;;;;;;;20.10;70.70;;;;;;5095187;28;19927;-54
2023/09/30 09:08:01;;;;;;;;;;;20.00;70.50;;;;;;5113375;28;19996;-53
2023/09/30 09:10:26;;;;;;;;;;;20.00;70.60;;;;;;5113303;28;19907;-54
2023/09/30 09:12:55;;;;;;;;;;;20.00;70.70;;;;;;5113351;28;19912;-55
2023/09/30 09:15:22;;;;;;;;;;;20.10;70.70;;;;;;5113284;28;19926;-54
2023/09/30 09:17:50;;;;;;;;;;;20.10;71.50;;;;;;5113336;28;19918;-54
2023/09/30 09:20:20;;;;;;;;;;;20.10;70.70;;;;;;5113451;28;19928;-54
2023/09/30 09:22:46;;;;;;;;;;;20.10;70.70;;;;;;5113217;28;20383;-55
2023/09/30 09:25:11;;;;;;;;;;;20.10;70.80;;;;;;5113323;28;19912;-55
2023/09/30 09:27:37;;;;;;;;;;;20.10;70.90;;;;;;5113120;28;19908;-54
2023/09/30 09:30:15;;;;;;;;;;;20.00;70.90;;;;;;5095021;28;20379;-53
2023/09/30 09:32:51;;;;;;;;;;;20.00;70.90;;;;;;5113200;28;19908;-55
2023/09/30 09:35:19;;;;;;;;;;;20.10;70.90;;;;;;5113265;28;19914;-53
2023/09/30 09:37:44;;;;;;;;;;;20.10;70.90;;;;;;5115370;28;19911;-55
2023/09/30 09:40:13;;;;;;;;;;;20.10;70.80;;;;;;5099149;28;19908;-53
2023/09/30 09:42:38;;;;;;;;;;;20.10;70.70;;;;;;5117202;28;19912;-55
2023/09/30 09:45:05;;;;;;;;;;;20.10;70.90;;;;;;5098923;28;20375;-54
2023/09/30 09:47:33;;;;;;;;;;;20.20;70.90;;;;;;5117204;28;19916;-55
2023/09/30 09:49:59;;;;;;;;;;;20.10;70.70;;;;;;5117111;28;19907;-54
2023/09/30 09:52:25;;;;;;;;;;;20.10;70.90;;;;;;5116857;28;19938;-54
2023/09/30 09:54:51;;;;;;;;;;;20.10;70.90;;;;;;5112647;28;19912;-55
2023/09/30 09:57:17;;;;;;;;;;;20.10;71.00;;;;;;5096390;28;19908;-53
2023/09/30 09:59:43;;;;;;;;;;;20.20;70.80;;;;;;5096442;28;19958;-54
2023/09/30 10:02:14;;;;;;;;;;;20.20;71.00;;;;;;5096600;28;19908;-53
2023/09/30 10:04:44;;;;;;;;;;;20.20;70.90;;;;;;5078808;28;20367;-54
2023/09/30 10:07:14;;;;;;;;;;;20.20;70.70;;;;;;5096420;28;19940;-54
2023/09/30 10:09:39;;;;;;;;;;;20.20;71.00;;;;;;5078037;28;19919;-54
2023/09/30 10:12:05;;;;;;;;;;;20.20;71.00;;;;;;5112034;28;19908;-53
2023/09/30 10:14:32;;;;;;;;;;;20.20;70.70;;;;;;5078042;28;19961;-53
2023/09/30 10:16:58;;;;;;;;;;;20.20;70.70;;;;;;5096157;28;19931;-55
2023/09/30 10:19:23;;;;;;;;;;;20.20;70.70;;;;;;5095927;28;19912;-54
2023/09/30 10:22:15;;;;;;;;;;;20.20;70.60;;;;;;5096010;28;19934;-53
2023/09/30 10:24:40;;;;;;;;;;;20.20;70.40;;;;;;5091695;28;19908;-54
2023/09/30 10:27:21;;;;;;;;;;;20.20;70.50;;;;;;5111626;28;19908;-53
2023/09/30 10:29:46;;;;;;;;;;;20.20;70.50;;;;;;5095912;28;19971;-53
2023/09/30 10:32:13;;;;;;;;;;;20.20;70.40;;;;;;5077671;28;19916;-54
2023/09/30 10:34:38;;;;;;;;;;;20.30;70.30;;;;;;5111543;28;19909;-54
2023/09/30 10:37:19;;;;;;;;;;;20.30;70.30;;;;;;5095779;28;19915;-54
2023/09/30 10:39:58;;;;;;;;;;;20.30;70.30;;;;;;5077732;28;19912;-54
2023/09/30 10:43:02;;;;;;;;;;;20.30;70.30;;;;;;5095701;28;20394;-54
2023/09/30 10:45:40;;;;;;;;;;;20.30;70.20;;;;;;4993992;28;20012;-53
2023/09/30 10:48:24;;;;;;;;;;;20.40;70.20;;;;;;4993303;28;19910;-53
2023/09/30 10:50:50;;;;;;;;;;;20.40;70.10;;;;;;5062188;28;19943;-53
2023/09/30 10:53:16;;;;;;;;;;;20.40;70.10;;;;;;5095569;28;19916;-54
2023/09/30 10:55:42;;;;;;;;;;;20.40;69.70;;;;;;5077771;28;19926;-54
2023/09/30 10:58:07;;;;;;;;;;;20.50;69.80;;;;;;5095305;28;19912;-54
2023/09/30 11:00:34;;;;;;;;;;;20.50;69.60;;;;;;5095326;28;19908;-54
2023/09/30 11:03:00;;;;;;;;;;;20.50;69.60;;;;;;5095204;28;19934;-54
2023/09/30 11:05:25;;;;;;;;;;;20.50;69.40;;;;;;5095167;28;19908;-54
2023/09/30 11:07:51;;;;;;;;;;;20.50;69.30;;;;;;5095062;28;19919;-54
2023/09/30 11:10:17;;;;;;;;;;;20.50;69.10;;;;;;5095131;28;19912;-53
2023/09/30 11:12:58;;;;;;;;;;;20.50;69.00;;;;;;5094944;28;19915;-53
2023/09/30 11:15:24;;;;;;;;;;;20.50;69.10;;;;;;5110498;28;19908;-54
2023/09/30 11:17:50;;;;;;;;;;;20.50;69.10;;;;;;5094927;28;19918;-54
2023/09/30 11:20:18;;;;;;;;;;;20.50;68.80;;;;;;5094853;28;19908;-54
2023/09/30 11:22:45;;;;;;;;;;;20.60;68.80;;;;;;5094875;28;19915;-54
2023/09/30 11:25:17;;;;;;;;;;;20.50;68.60;;;;;;5095408;28;20395;-54
2023/09/30 11:27:43;;;;;;;;;;;20.50;68.40;;;;;;5094823;28;19908;-54
2023/09/30 11:30:09;;;;;;;;;;;20.50;68.20;;;;;;5094771;28;19934;-57
2023/09/30 11:32:34;;;;;;;;;;;20.50;68.40;;;;;;5094875;28;19908;-53
2023/09/30 11:34:59;;;;;;;;;;;20.50;68.30;;;;;;5094569;28;19912;-54
2023/09/30 11:37:34;;;;;;;;;;;20.50;68.10;;;;;;5076456;28;19908;-53
2023/09/30 11:40:10;;;;;;;;;;;20.50;67.10;;;;;;5094454;28;19990;-54
2023/09/30 11:42:35;;;;;;;;;;;20.50;67.10;;;;;;5094386;28;20356;-54
2023/09/30 11:45:01;;;;;;;;;;;20.60;67.10;;;;;;5110082;28;19912;-53
2023/09/30 11:47:34;;;;;;;;;;;20.50;67.20;;;;;;5076240;28;19908;-54
2023/09/30 11:49:59;;;;;;;;;;;20.60;67.00;;;;;;5094630;28;20360;-54
2023/09/30 11:52:28;;;;;;;;;;;20.50;66.80;;;;;;5094086;28;19927;-55
2023/09/30 11:54:53;;;;;;;;;;;20.50;66.70;;;;;;5094812;28;19916;-54
2023/09/30 11:57:19;;;;;;;;;;;20.50;66.90;;;;;;5094141;28;20421;-55
2023/09/30 11:59:45;;;;;;;;;;;20.50;67.00;;;;;;5094493;28;19994;-54
2023/09/30 12:02:11;;;;;;;;;;;20.50;66.70;;;;;;5093988;28;20023;-54
2023/09/30 12:04:36;;;;;;;;;;;20.50;67.00;;;;;;5094230;28;19908;-54
2023/09/30 12:07:02;;;;;;;;;;;20.40;66.90;;;;;;5075966;28;19915;-54
2023/09/30 12:09:28;;;;;;;;;;;20.40;67.00;;;;;;5093995;28;20370;-54
2023/09/30 12:11:54;;;;;;;;;;;20.40;66.70;;;;;;5094008;28;19912;-56
2023/09/30 12:14:22;;;;;;;;;;;20.40;66.40;;;;;;5093844;28;19998;-55
2023/09/30 12:16:47;;;;;;;;;;;20.40;65.70;;;;;;5093900;28;19954;-55
2023/09/30 12:19:13;;;;;;;;;;;20.50;65.70;;;;;;5109297;28;19974;-55
2023/09/30 12:21:40;;;;;;;;;;;20.50;65.40;;;;;;5109440;28;19912;-55
2023/09/30 12:24:07;;;;;;;;;;;20.50;65.90;;;;;;5093678;28;19912;-56
2023/09/30 12:26:33;;;;;;;;;;;20.50;65.80;;;;;;5094339;28;19915;-55
2023/09/30 12:28:58;;;;;;;;;;;20.60;65.10;;;;;;5093719;28;19912;-55
2023/09/30 12:31:24;;;;;;;;;;;20.60;65.10;;;;;;5075382;28;19908;-54
2023/09/30 12:33:51;;;;;;;;;;;20.60;65.00;;;;;;5093538;28;19966;-55
2023/09/30 12:36:17;;;;;;;;;;;20.70;65.30;;;;;;5093522;28;19931;-55
2023/09/30 12:38:42;;;;;;;;;;;20.60;65.20;;;;;;5075170;28;19912;-54
2023/09/30 12:41:08;;;;;;;;;;;20.60;65.10;;;;;;5093498;28;19908;-54
2023/09/30 12:43:33;;;;;;;;;;;20.60;65.30;;;;;;5093465;28;19908;-55
2023/09/30 12:45:59;;;;;;;;;;;20.60;65.40;;;;;;5093426;28;19984;-55
2023/09/30 12:48:25;;;;;;;;;;;20.60;65.30;;;;;;5093251;28;19915;-55
2023/09/30 12:50:50;;;;;;;;;;;20.60;65.60;;;;;;5093056;28;19916;-55
2023/09/30 12:53:15;;;;;;;;;;;20.50;65.90;;;;;;5093450;28;19912;-55
2023/09/30 12:55:41;;;;;;;;;;;20.50;65.30;;;;;;5093851;28;19912;-54
2023/09/30 12:58:08;;;;;;;;;;;20.50;64.90;;;;;;5093284;28;20291;-55
2023/09/30 13:00:35;;;;;;;;;;;20.50;64.10;;;;;;5093504;28;19908;-54
2023/09/30 13:03:01;;;;;;;;;;;20.50;63.60;;;;;;5093068;28;19916;-55
2023/09/30 13:05:26;;;;;;;;;;;20.60;62.80;;;;;;5093339;28;20276;-55
2023/09/30 13:07:55;;;;;;;;;;;20.60;62.90;;;;;;5093022;28;19961;-55
2023/09/30 13:10:22;;;;;;;;;;;20.50;63.30;;;;;;5093111;28;20373;-54
2023/09/30 13:12:49;;;;;;;;;;;20.50;63.80;;;;;;5108268;28;19990;-55
2023/09/30 13:15:15;;;;;;;;;;;20.50;63.20;;;;;;5093078;28;19908;-55
2023/09/30 13:17:40;;;;;;;;;;;20.50;63.10;;;;;;5093245;28;19914;-55
2023/09/30 13:20:08;;;;;;;;;;;20.50;63.50;;;;;;5093009;28;19908;-54
2023/09/30 13:22:34;;;;;;;;;;;20.50;63.20;;;;;;5108665;28;20399;-55
2023/09/30 13:25:07;;;;;;;;;;;20.50;63.40;;;;;;5075756;28;19908;-54
2023/09/30 13:27:33;;;;;;;;;;;20.50;63.60;;;;;;5092974;28;19908;-54
2023/09/30 13:29:59;;;;;;;;;;;20.50;63.50;;;;;;5092898;28;19908;-54
2023/09/30 13:32:24;;;;;;;;;;;20.50;64.00;;;;;;5093271;28;19975;-54
2023/09/30 13:34:50;;;;;;;;;;;20.50;63.80;;;;;;5092905;28;19951;-55
2023/09/30 13:37:16;;;;;;;;;;;20.50;63.90;;;;;;5092931;28;19912;-55
2023/09/30 13:39:41;;;;;;;;;;;20.50;64.20;;;;;;5092642;28;20446;-55
2023/09/30 13:42:07;;;;;;;;;;;20.60;64.00;;;;;;5092861;28;19916;-55
2023/09/30 13:44:32;;;;;;;;;;;20.50;63.70;;;;;;5092831;28;19947;-55
2023/09/30 13:46:58;;;;;;;;;;;20.50;63.90;;;;;;5074569;28;19908;-54
2023/09/30 13:49:23;;;;;;;;;;;20.60;63.90;;;;;;5092699;28;20002;-54
2023/09/30 13:51:49;;;;;;;;;;;20.60;63.90;;;;;;5092825;28;19920;-54
2023/09/30 13:54:15;;;;;;;;;;;20.60;63.90;;;;;;5092728;28;19908;-55
2023/09/30 13:56:40;;;;;;;;;;;20.60;63.60;;;;;;5108239;28;19915;-54
2023/09/30 13:59:06;;;;;;;;;;;20.60;63.60;;;;;;5092584;28;20384;-55
2023/09/30 14:01:31;;;;;;;;;;;20.60;63.30;;;;;;5092601;28;19912;-54
2023/09/30 14:03:57;;;;;;;;;;;20.60;63.10;;;;;;5108264;28;19915;-55
2023/09/30 14:06:23;;;;;;;;;;;20.60;63.40;;;;;;5074859;28;19908;-55
2023/09/30 14:08:49;;;;;;;;;;;20.60;63.60;;;;;;5092508;28;19916;-54
2023/09/30 14:11:14;;;;;;;;;;;20.60;63.00;;;;;;5081492;28;19912;-54